Time;durP1;ratioP1;P1;durP2;ratioP2;P2;SDS_P1;SDS_P2;PMS_P1;PMS_P2;Temp;Humidity;BMP_temperature;BMP_pressure;BME280_temperature;BME280_humidity;BME280_pressure;Samples;Min_cycle;Max_cycle;Signal;HPM_P1;HPM_P2
2023/05/09 00:00:22;;;;;;;5.63;2.20;;;;;;;;;;5008818;28;20053;-57
2023/05/09 00:02:48;;;;;;;5.90;2.05;;;;;;;;;;5011260;28;20050;-57
2023/05/09 00:05:15;;;;;;;3.25;1.77;;;;;;;;;;5010835;28;20536;-57
2023/05/09 00:07:41;;;;;;;3.67;2.08;;;;;;;;;;5009150;28;20038;-57
2023/05/09 00:10:07;;;;;;;2.90;1.65;;;;;;;;;;5004007;28;20048;-57
2023/05/09 00:12:33;;;;;;;3.03;2.00;;;;;;;;;;5008864;28;20034;-57
2023/05/09 00:14:59;;;;;;;2.80;1.85;;;;;;;;;;5011110;28;20487;-57
2023/05/09 00:17:27;;;;;;;5.53;2.42;;;;;;;;;;5010674;28;20034;-57
2023/05/09 00:19:54;;;;;;;3.13;2.30;;;;;;;;;;5012246;28;20674;-57
2023/05/09 00:22:20;;;;;;;5.57;2.03;;;;;;;;;;5004852;28;20033;-57
2023/05/09 00:24:49;;;;;;;4.60;2.60;;;;;;;;;;5010478;28;20046;-57
2023/05/09 00:27:16;;;;;;;5.88;2.50;;;;;;;;;;5012659;28;20034;-57
2023/05/09 00:29:42;;;;;;;4.35;1.98;;;;;;;;;;5009524;28;20430;-57
2023/05/09 00:32:08;;;;;;;5.13;2.80;;;;;;;;;;5012420;28;20906;-57
2023/05/09 00:34:34;;;;;;;2.70;1.92;;;;;;;;;;5014062;28;20759;-57
2023/05/09 00:37:00;;;;;;;6.07;2.70;;;;;;;;;;5014908;28;20117;-57
2023/05/09 00:39:26;;;;;;;3.00;2.17;;;;;;;;;;5009959;28;20046;-57
2023/05/09 00:41:53;;;;;;;2.97;1.92;;;;;;;;;;5013065;28;20080;-57
2023/05/09 00:44:19;;;;;;;5.03;2.88;;;;;;;;;;5014161;28;20053;-57
2023/05/09 00:46:46;;;;;;;3.90;1.83;;;;;;;;;;5016531;28;20180;-57
2023/05/09 00:49:12;;;;;;;5.00;2.55;;;;;;;;;;5011180;28;20053;-57
2023/05/09 00:51:39;;;;;;;3.88;2.13;;;;;;;;;;5013791;28;20053;-57
2023/05/09 00:54:05;;;;;;;5.20;2.05;;;;;;;;;;5045439;28;20530;-57
2023/05/09 00:56:31;;;;;;;8.10;2.22;;;;;;;;;;5009124;28;20046;-57
2023/05/09 00:58:57;;;;;;;4.10;2.45;;;;;;;;;;5016268;28;20099;-57
2023/05/09 01:01:23;;;;;;;4.78;2.65;;;;;;;;;;5010707;28;20531;-57
2023/05/09 01:03:50;;;;;;;3.40;1.95;;;;;;;;;;5010631;28;20108;-57
2023/05/09 01:06:16;;;;;;;5.20;2.97;;;;;;;;;;5011666;28;20058;-57
2023/05/09 01:09:00;;;;;;;4.68;2.15;;;;;;;;;;5012379;28;20587;-57
2023/05/09 01:11:40;;;;;;;5.03;2.28;;;;;;;;;;5015288;28;20041;-57
2023/05/09 01:14:22;;;;;;;5.15;2.80;;;;;;;;;;5013071;28;20042;-56
2023/05/09 01:16:48;;;;;;;;;;;;;;;;;;5013211;28;20080;-57
2023/05/09 01:19:36;;;;;;;5.25;2.60;;;;;;;;;;5011124;28;19921;-57
2023/05/09 01:22:03;;;;;;;5.75;2.60;;;;;;;;;;5009813;28;20307;-57
2023/05/09 01:24:56;;;;;;;4.57;2.50;;;;;;;;;;5013699;28;20057;-57
2023/05/09 01:27:32;;;;;;;6.30;2.97;;;;;;;;;;5010956;28;20192;-57
2023/05/09 01:29:59;;;;;;;3.58;1.85;;;;;;;;;;5010841;28;20774;-57
2023/05/09 01:32:27;;;;;;;3.58;2.47;;;;;;;;;;5010465;28;20053;-57
2023/05/09 01:34:54;;;;;;;5.55;3.03;;;;;;;;;;5012352;28;20046;-57
2023/05/09 01:37:24;;;;;;;6.38;2.45;;;;;;;;;;5013447;28;20034;-57
2023/05/09 01:39:52;;;;;;;5.00;2.78;;;;;;;;;;5013008;28;20134;-57
2023/05/09 01:42:20;;;;;;;7.68;3.17;;;;;;;;;;5012214;28;20065;-57
2023/05/09 01:44:47;;;;;;;4.38;2.60;;;;;;;;;;5014068;28;20057;-57
2023/05/09 01:47:15;;;;;;;3.67;2.63;;;;;;;;;;5012751;28;20042;-57
2023/05/09 01:49:42;;;;;;;4.53;2.60;;;;;;;;;;5013099;28;20057;-57
2023/05/09 01:52:09;;;;;;;5.13;2.70;;;;;;;;;;5013647;28;20045;-57
2023/05/09 01:54:37;;;;;;;5.45;2.80;;;;;;;;;;5013771;28;20068;-57
2023/05/09 01:57:03;;;;;;;3.95;2.70;;;;;;;;;;5014334;28;20551;-57
2023/05/09 01:59:31;;;;;;;4.10;2.55;;;;;;;;;;5011956;28;20164;-57
2023/05/09 02:01:57;;;;;;;6.22;2.47;;;;;;;;;;5009723;28;20045;-57
2023/05/09 02:04:24;;;;;;;5.28;2.72;;;;;;;;;;5013359;28;20122;-57
2023/05/09 02:06:51;;;;;;;4.35;2.88;;;;;;;;;;5010921;28;20069;-57
2023/05/09 02:09:20;;;;;;;4.07;3.42;;;;;;;;;;5011755;28;20556;-57
2023/05/09 02:11:46;;;;;;;4.35;2.72;;;;;;;;;;5013484;28;20042;-57
2023/05/09 02:14:12;;;;;;;4.78;2.75;;;;;;;;;;5009822;28;20580;-57
2023/05/09 02:16:39;;;;;;;5.90;2.92;;;;;;;;;;5003888;28;20405;-57
2023/05/09 02:19:05;;;;;;;5.43;2.60;;;;;;;;;;5014712;28;20124;-58
2023/05/09 02:21:31;;;;;;;6.00;2.90;;;;;;;;;;5015467;28;20539;-57
2023/05/09 02:23:58;;;;;;;7.78;3.60;;;;;;;;;;5014026;28;20054;-57
2023/05/09 02:26:24;;;;;;;5.18;3.00;;;;;;;;;;5011868;28;20049;-57
2023/05/09 02:28:51;;;;;;;3.88;2.55;;;;;;;;;;5013615;28;20911;-58
2023/05/09 02:31:18;;;;;;;4.85;2.83;;;;;;;;;;5009985;28;20046;-58
2023/05/09 02:33:46;;;;;;;6.55;3.15;;;;;;;;;;5012771;28;20073;-57
2023/05/09 02:36:13;;;;;;;8.02;3.05;;;;;;;;;;5009705;28;20049;-57
2023/05/09 02:38:40;;;;;;;8.38;3.33;;;;;;;;;;5012637;28;20049;-58
2023/05/09 02:41:06;;;;;;;5.35;2.55;;;;;;;;;;5009706;28;20053;-57
2023/05/09 02:43:32;;;;;;;5.95;2.65;;;;;;;;;;5006087;28;20076;-57
2023/05/09 02:45:58;;;;;;;6.30;2.67;;;;;;;;;;5009559;28;20061;-57
2023/05/09 02:48:25;;;;;;;6.25;2.90;;;;;;;;;;5011055;28;20188;-57
2023/05/09 02:50:51;;;;;;;5.95;3.13;;;;;;;;;;5011692;28;20053;-58
2023/05/09 02:53:17;;;;;;;4.65;3.33;;;;;;;;;;5011341;28;20081;-57
2023/05/09 02:55:43;;;;;;;6.30;3.30;;;;;;;;;;5004227;28;20046;-57
2023/05/09 02:58:09;;;;;;;9.32;4.28;;;;;;;;;;5013174;28;20060;-58
2023/05/09 03:00:35;;;;;;;7.80;3.50;;;;;;;;;;5011011;28;20046;-58
2023/05/09 03:03:01;;;;;;;5.20;3.53;;;;;;;;;;5010043;28;20150;-58
2023/05/09 03:05:27;;;;;;;5.00;2.92;;;;;;;;;;5028131;28;20129;-57
2023/05/09 03:07:54;;;;;;;5.47;3.10;;;;;;;;;;5011388;28;20803;-57
2023/05/09 03:10:20;;;;;;;6.72;3.40;;;;;;;;;;5012700;28;21202;-57
2023/05/09 03:12:46;;;;;;;6.30;4.20;;;;;;;;;;5010712;28;20049;-57
2023/05/09 03:15:12;;;;;;;4.88;3.20;;;;;;;;;;5010550;28;20551;-58
2023/05/09 03:17:38;;;;;;;5.60;3.22;;;;;;;;;;5010113;28;20052;-57
2023/05/09 03:20:05;;;;;;;4.60;3.03;;;;;;;;;;5013123;28;20057;-58
2023/05/09 03:22:31;;;;;;;5.68;2.97;;;;;;;;;;5010722;28;20786;-59
2023/05/09 03:24:57;;;;;;;5.80;3.25;;;;;;;;;;5026184;28;20045;-57
2023/05/09 03:27:25;;;;;;;4.43;2.97;;;;;;;;;;5011866;28;20037;-57
2023/05/09 03:29:51;;;;;;;4.85;2.60;;;;;;;;;;5011518;28;21302;-57
2023/05/09 03:32:19;;;;;;;4.78;3.28;;;;;;;;;;5010657;28;20074;-57
2023/05/09 03:34:45;;;;;;;5.88;2.78;;;;;;;;;;5041738;28;20661;-57
2023/05/09 03:37:11;;;;;;;8.40;3.78;;;;;;;;;;5009711;28;20034;-58
2023/05/09 03:39:37;;;;;;;4.55;3.20;;;;;;;;;;5009219;28;20042;-57
2023/05/09 03:42:03;;;;;;;8.13;3.42;;;;;;;;;;5010392;28;20042;-58
2023/05/09 03:44:29;;;;;;;5.35;3.60;;;;;;;;;;5009405;28;20053;-57
2023/05/09 03:46:55;;;;;;;7.05;3.30;;;;;;;;;;5012334;28;20034;-57
2023/05/09 03:49:22;;;;;;;6.53;3.38;;;;;;;;;;5009341;28;20052;-57
2023/05/09 03:51:48;;;;;;;6.25;3.00;;;;;;;;;;5011346;28;20056;-58
2023/05/09 03:54:14;;;;;;;6.80;3.08;;;;;;;;;;5010223;28;20627;-57
2023/05/09 03:56:40;;;;;;;7.47;3.65;;;;;;;;;;5009152;28;20109;-58
2023/05/09 03:59:06;;;;;;;6.10;3.47;;;;;;;;;;5011154;28;20050;-58
2023/05/09 04:01:32;;;;;;;4.63;2.85;;;;;;;;;;5041741;28;20590;-58
2023/05/09 04:03:59;;;;;;;7.80;4.22;;;;;;;;;;5012913;28;20042;-57
2023/05/09 04:06:25;;;;;;;9.02;3.85;;;;;;;;;;5013602;28;20233;-57
2023/05/09 04:08:51;;;;;;;5.82;3.75;;;;;;;;;;5008327;28;20049;-58
2023/05/09 04:11:17;;;;;;;9.23;3.95;;;;;;;;;;5011884;28;20428;-57
2023/05/09 04:13:43;;;;;;;7.15;3.92;;;;;;;;;;5011957;28;20064;-58
2023/05/09 04:16:09;;;;;;;5.38;3.53;;;;;;;;;;5009741;28;20117;-58
2023/05/09 04:18:38;;;;;;;7.20;3.75;;;;;;;;;;5011244;28;20120;-57
2023/05/09 04:21:04;;;;;;;7.00;3.47;;;;;;;;;;5008672;28;20042;-57
2023/05/09 04:23:30;;;;;;;4.60;2.95;;;;;;;;;;5011267;28;20035;-57
2023/05/09 04:25:57;;;;;;;6.82;3.53;;;;;;;;;;5009601;28;20053;-58
2023/05/09 04:28:23;;;;;;;6.13;3.50;;;;;;;;;;5011606;28;20039;-58
2023/05/09 04:30:49;;;;;;;8.25;3.60;;;;;;;;;;5010774;28;20049;-58
2023/05/09 04:33:15;;;;;;;6.75;3.47;;;;;;;;;;5011554;28;20516;-57
2023/05/09 04:35:42;;;;;;;4.32;2.70;;;;;;;;;;5009660;28;20037;-57
2023/05/09 04:38:08;;;;;;;4.97;3.80;;;;;;;;;;5009623;28;20042;-57
2023/05/09 04:40:34;;;;;;;4.43;3.00;;;;;;;;;;5007369;28;20052;-58
2023/05/09 04:43:00;;;;;;;7.78;3.15;;;;;;;;;;5007156;28;20559;-58
2023/05/09 04:45:26;;;;;;;7.20;3.28;;;;;;;;;;5010551;28;20089;-57
2023/05/09 04:47:52;;;;;;;4.82;3.13;;;;;;;;;;5002765;28;20040;-58
2023/05/09 04:50:18;;;;;;;5.40;3.30;;;;;;;;;;4995176;28;20065;-58
2023/05/09 04:52:45;;;;;;;6.35;3.65;;;;;;;;;;5002245;28;20133;-58
2023/05/09 04:55:11;;;;;;;4.88;3.17;;;;;;;;;;4997601;28;20042;-57
2023/05/09 04:57:37;;;;;;;5.40;3.55;;;;;;;;;;5009519;28;20050;-58
2023/05/09 05:00:05;;;;;;;5.63;2.67;;;;;;;;;;5010215;28;20042;-57
2023/05/09 05:02:32;;;;;;;5.63;3.28;;;;;;;;;;5027924;28;20120;-57
2023/05/09 05:04:58;;;;;;;4.85;3.65;;;;;;;;;;5012808;28;20100;-58
2023/05/09 05:07:24;;;;;;;6.90;3.08;;;;;;;;;;5011545;28;20101;-57
2023/05/09 05:09:50;;;;;;;6.40;3.50;;;;;;;;;;5004820;28;20048;-57
2023/05/09 05:12:16;;;;;;;5.32;3.45;;;;;;;;;;5003556;28;20388;-58
2023/05/09 05:14:42;;;;;;;5.45;3.72;;;;;;;;;;5004532;28;20560;-58
2023/05/09 05:17:08;;;;;;;5.20;2.85;;;;;;;;;;5006225;28;20626;-58
2023/05/09 05:19:34;;;;;;;5.90;2.80;;;;;;;;;;5008471;28;20044;-58
2023/05/09 05:22:00;;;;;;;3.92;2.90;;;;;;;;;;5008285;28;20639;-58
2023/05/09 05:24:27;;;;;;;4.80;2.50;;;;;;;;;;5015923;28;20137;-58
2023/05/09 05:26:53;;;;;;;6.05;3.95;;;;;;;;;;5008844;28;20038;-57
2023/05/09 05:29:19;;;;;;;5.28;2.63;;;;;;;;;;5014109;28;20046;-57
2023/05/09 05:31:45;;;;;;;5.70;2.95;;;;;;;;;;5011217;28;20132;-58
2023/05/09 05:34:11;;;;;;;4.75;3.55;;;;;;;;;;5003843;28;20436;-58
2023/05/09 05:36:37;;;;;;;5.00;2.70;;;;;;;;;;4995474;28;20603;-57
2023/05/09 05:39:03;;;;;;;5.72;2.63;;;;;;;;;;5014369;28;20042;-58
2023/05/09 05:41:29;;;;;;;5.32;2.65;;;;;;;;;;5011551;28;20117;-58
2023/05/09 05:43:55;;;;;;;4.10;2.45;;;;;;;;;;5013307;28;20528;-58
2023/05/09 05:46:22;;;;;;;10.75;3.50;;;;;;;;;;5016161;28;20527;-57
2023/05/09 05:48:48;;;;;;;5.68;2.53;;;;;;;;;;5007700;28;20046;-58
2023/05/09 05:51:14;;;;;;;7.88;2.70;;;;;;;;;;5012007;28;20069;-58
2023/05/09 05:53:40;;;;;;;4.40;3.08;;;;;;;;;;5015796;28;20053;-57
2023/05/09 05:56:06;;;;;;;6.15;3.42;;;;;;;;;;5009148;28;20641;-57
2023/05/09 05:58:32;;;;;;;6.38;3.65;;;;;;;;;;5016436;28;20125;-57
2023/05/09 06:00:58;;;;;;;4.72;2.17;;;;;;;;;;5012195;28;20042;-58
2023/05/09 06:03:24;;;;;;;8.20;2.80;;;;;;;;;;5010876;28;20076;-57
2023/05/09 06:05:50;;;;;;;6.47;2.85;;;;;;;;;;5044199;28;20049;-57
2023/05/09 06:08:17;;;;;;;5.72;2.67;;;;;;;;;;5012195;28;20046;-57
2023/05/09 06:10:43;;;;;;;7.43;2.90;;;;;;;;;;5009560;28;20626;-57
2023/05/09 06:13:09;;;;;;;4.50;2.38;;;;;;;;;;5012775;28;20496;-57
2023/05/09 06:15:35;;;;;;;5.50;2.50;;;;;;;;;;5010017;28;20520;-58
2023/05/09 06:18:01;;;;;;;4.70;2.60;;;;;;;;;;5010660;28;20905;-58
2023/05/09 06:20:27;;;;;;;6.68;2.90;;;;;;;;;;5007207;28;20050;-57
2023/05/09 06:22:53;;;;;;;4.30;2.35;;;;;;;;;;5013206;28;20070;-57
2023/05/09 06:25:19;;;;;;;5.28;2.45;;;;;;;;;;5010619;28;20069;-57
2023/05/09 06:27:45;;;;;;;3.05;1.90;;;;;;;;;;5010631;28;21091;-57
2023/05/09 06:30:12;;;;;;;5.75;1.95;;;;;;;;;;5011246;28;20543;-58
2023/05/09 06:32:38;;;;;;;5.35;1.80;;;;;;;;;;5010342;28;20045;-57
2023/05/09 06:35:04;;;;;;;2.95;1.42;;;;;;;;;;5042507;28;20042;-58
2023/05/09 06:37:34;;;;;;;3.08;1.73;;;;;;;;;;5001962;28;20643;-57
2023/05/09 06:40:00;;;;;;;3.50;1.77;;;;;;;;;;5006451;28;20050;-57
2023/05/09 06:42:27;;;;;;;4.18;1.40;;;;;;;;;;5009577;28;20038;-57
2023/05/09 06:44:53;;;;;;;1.70;1.13;;;;;;;;;;5012542;28;20519;-58
2023/05/09 06:47:19;;;;;;;4.88;1.67;;;;;;;;;;5015599;28;20544;-58
2023/05/09 06:49:45;;;;;;;3.15;1.45;;;;;;;;;;5014074;28;20049;-57
2023/05/09 06:52:14;;;;;;;3.53;1.52;;;;;;;;;;5014664;28;20045;-58
2023/05/09 06:54:40;;;;;;;2.65;1.85;;;;;;;;;;5015533;28;20109;-58
2023/05/09 06:57:07;;;;;;;4.55;2.47;;;;;;;;;;5013117;28;20046;-58
2023/05/09 06:59:33;;;;;;;1.98;1.23;;;;;;;;;;5015529;28;20088;-58
2023/05/09 07:01:59;;;;;;;3.80;1.92;;;;;;;;;;5031486;28;20564;-58
2023/05/09 07:04:25;;;;;;;3.92;1.40;;;;;;;;;;5014218;28;20808;-57
2023/05/09 07:06:51;;;;;;;4.85;2.22;;;;;;;;;;5016559;28;20038;-57
2023/05/09 07:09:19;;;;;;;3.65;1.40;;;;;;;;;;5014707;28;20201;-57
2023/05/09 07:11:45;;;;;;;1.75;1.30;;;;;;;;;;5046788;28;20531;-57
2023/05/09 07:14:12;;;;;;;2.78;1.45;;;;;;;;;;5014480;28;20061;-57
2023/05/09 07:16:38;;;;;;;2.13;1.55;;;;;;;;;;5015680;28;20112;-58
2023/05/09 07:19:04;;;;;;;4.63;1.60;;;;;;;;;;5014921;28;20104;-57
2023/05/09 07:21:33;;;;;;;1.58;1.40;;;;;;;;;;5014052;28;20042;-57
2023/05/09 07:23:59;;;;;;;5.10;1.73;;;;;;;;;;5014786;28;20038;-58
2023/05/09 07:26:25;;;;;;;1.95;1.60;;;;;;;;;;5015972;28;20070;-57
2023/05/09 07:28:51;;;;;;;3.90;1.52;;;;;;;;;;5014505;28;20042;-58
2023/05/09 07:31:18;;;;;;;2.80;1.35;;;;;;;;;;5015405;28;20034;-57
2023/05/09 07:33:44;;;;;;;4.28;1.23;;;;;;;;;;5015785;28;20547;-57
2023/05/09 07:36:12;;;;;;;3.75;1.95;;;;;;;;;;5014414;28;20055;-57
2023/05/09 07:38:39;;;;;;;1.17;0.88;;;;;;;;;;5014276;28;20041;-57
2023/05/09 07:41:05;;;;;;;2.85;1.55;;;;;;;;;;5015915;28;20563;-58
2023/05/09 07:43:31;;;;;;;3.13;1.40;;;;;;;;;;5016332;28;20180;-57
2023/05/09 07:45:58;;;;;;;1.73;1.17;;;;;;;;;;5014253;28;20042;-57
2023/05/09 07:48:24;;;;;;;1.20;0.90;;;;;;;;;;5016747;28;20045;-58
2023/05/09 07:50:50;;;;;;;3.85;1.45;;;;;;;;;;5015686;28;20038;-57
2023/05/09 07:53:16;;;;;;;2.60;1.33;;;;;;;;;;5010422;28;20045;-58
2023/05/09 07:55:43;;;;;;;1.92;1.10;;;;;;;;;;5014551;28;20130;-58
2023/05/09 07:58:09;;;;;;;1.05;0.95;;;;;;;;;;5015571;28;20085;-58
2023/05/09 08:00:35;;;;;;;2.30;1.30;;;;;;;;;;5014703;28;20047;-57
2023/05/09 08:03:01;;;;;;;2.30;1.25;;;;;;;;;;5015127;28;20045;-57
2023/05/09 08:05:28;;;;;;;4.63;1.38;;;;;;;;;;5014755;28;20547;-58
2023/05/09 08:07:54;;;;;;;3.78;1.58;;;;;;;;;;5015260;28;20642;-57
2023/05/09 08:10:21;;;;;;;2.15;1.30;;;;;;;;;;5013356;28;20038;-58
2023/05/09 08:12:48;;;;;;;2.50;1.13;;;;;;;;;;5014923;28;20125;-57
2023/05/09 08:15:14;;;;;;;2.03;1.38;;;;;;;;;;5013278;28;20918;-57
2023/05/09 08:17:40;;;;;;;1.10;0.85;;;;;;;;;;5007583;28;20071;-57
2023/05/09 08:20:07;;;;;;;2.97;1.10;;;;;;;;;;5012762;28;20042;-57
2023/05/09 08:22:33;;;;;;;2.85;1.20;;;;;;;;;;5014026;28;20042;-58
2023/05/09 08:24:59;;;;;;;1.48;1.00;;;;;;;;;;5012626;28;20049;-57
2023/05/09 08:27:26;;;;;;;2.38;1.13;;;;;;;;;;5029675;28;20034;-57
2023/05/09 08:29:52;;;;;;;3.72;1.05;;;;;;;;;;5012743;28;20045;-58
2023/05/09 08:32:18;;;;;;;1.92;1.20;;;;;;;;;;5012268;28;20030;-58
2023/05/09 08:34:45;;;;;;;2.38;1.40;;;;;;;;;;5013335;28;20602;-57
2023/05/09 08:37:11;;;;;;;0.88;0.85;;;;;;;;;;5013813;28;20850;-57
2023/05/09 08:39:37;;;;;;;1.83;1.00;;;;;;;;;;5012894;28;20559;-57
2023/05/09 08:42:03;;;;;;;2.28;0.93;;;;;;;;;;5014633;28;20046;-57
2023/05/09 08:44:31;;;;;;;2.30;1.17;;;;;;;;;;5012773;28;20061;-58
2023/05/09 08:47:00;;;;;;;1.30;0.88;;;;;;;;;;5013805;28;20042;-58
2023/05/09 08:49:27;;;;;;;1.23;0.95;;;;;;;;;;5011068;28;20054;-57
2023/05/09 08:51:53;;;;;;;0.70;0.70;;;;;;;;;;5014626;28;20038;-57
2023/05/09 08:54:20;;;;;;;1.45;0.98;;;;;;;;;;5012218;28;20444;-58
2023/05/09 08:56:47;;;;;;;1.13;0.70;;;;;;;;;;5014705;28;20042;-58
2023/05/09 08:59:13;;;;;;;5.05;0.90;;;;;;;;;;5016065;28;20069;-57
2023/05/09 09:01:40;;;;;;;1.92;1.00;;;;;;;;;;5018001;28;20050;-57
2023/05/09 09:04:07;;;;;;;1.83;1.40;;;;;;;;;;5017324;28;20108;-57
2023/05/09 09:06:33;;;;;;;1.15;0.98;;;;;;;;;;5017728;28;20125;-57
2023/05/09 09:09:00;;;;;;;0.73;0.70;;;;;;;;;;5015954;28;20046;-57
2023/05/09 09:11:27;;;;;;;1.42;0.98;;;;;;;;;;5017907;28;20042;-57
2023/05/09 09:13:54;;;;;;;0.85;0.70;;;;;;;;;;5016838;28;20046;-57
2023/05/09 09:16:20;;;;;;;1.70;1.00;;;;;;;;;;5018034;28;20046;-57
2023/05/09 09:18:47;;;;;;;2.83;0.82;;;;;;;;;;5018183;28;20086;-57
2023/05/09 09:21:15;;;;;;;1.38;0.77;;;;;;;;;;5017633;28;20971;-57
2023/05/09 09:23:42;;;;;;;0.88;0.60;;;;;;;;;;5018944;28;20046;-57
2023/05/09 09:26:08;;;;;;;1.05;0.80;;;;;;;;;;5016659;28;20098;-57
2023/05/09 09:28:35;;;;;;;1.10;1.00;;;;;;;;;;5019223;28;20053;-57
2023/05/09 09:31:01;;;;;;;0.70;0.63;;;;;;;;;;5016305;28;21272;-57
2023/05/09 09:33:28;;;;;;;1.98;0.80;;;;;;;;;;5018796;28;20042;-57
2023/05/09 09:35:55;;;;;;;1.33;0.90;;;;;;;;;;5018013;28;20064;-58
2023/05/09 09:38:22;;;;;;;2.20;1.20;;;;;;;;;;5018073;28;20053;-57
2023/05/09 09:40:52;;;;;;;1.48;0.95;;;;;;;;;;5017960;28;20117;-57
2023/05/09 09:43:18;;;;;;;1.10;0.63;;;;;;;;;;5018027;28;20144;-57
2023/05/09 09:45:48;;;;;;;2.38;0.73;;;;;;;;;;5016267;28;20089;-57
2023/05/09 09:48:14;;;;;;;1.00;0.85;;;;;;;;;;5015559;28;20046;-58
2023/05/09 09:50:40;;;;;;;1.15;0.70;;;;;;;;;;5013378;28;20542;-58
2023/05/09 09:53:07;;;;;;;1.02;0.73;;;;;;;;;;5014770;28;20044;-57
2023/05/09 09:55:34;;;;;;;2.03;1.27;;;;;;;;;;5031044;28;20053;-58
2023/05/09 09:58:00;;;;;;;1.45;0.80;;;;;;;;;;5017577;28;20041;-58
2023/05/09 10:00:27;;;;;;;1.02;0.80;;;;;;;;;;5015778;28;20046;-58
2023/05/09 10:02:57;;;;;;;2.08;0.90;;;;;;;;;;5013329;28;20619;-58
2023/05/09 10:05:27;;;;;;;0.63;0.60;;;;;;;;;;5007024;28;20050;-57
2023/05/09 10:07:53;;;;;;;1.00;0.77;;;;;;;;;;5016834;28;20034;-57
2023/05/09 10:10:20;;;;;;;0.82;0.47;;;;;;;;;;5014611;28;20635;-57
2023/05/09 10:12:47;;;;;;;1.00;0.80;;;;;;;;;;5017000;28;20049;-57
2023/05/09 10:15:17;;;;;;;1.25;0.75;;;;;;;;;;5016364;28;20053;-58
2023/05/09 10:17:43;;;;;;;0.85;0.60;;;;;;;;;;5016966;28;20038;-58
2023/05/09 10:20:10;;;;;;;3.83;0.93;;;;;;;;;;5015526;28;20049;-57
2023/05/09 10:22:38;;;;;;;1.08;0.80;;;;;;;;;;5017371;28;20073;-58
2023/05/09 10:25:05;;;;;;;1.48;1.25;;;;;;;;;;5016582;28;20046;-58
2023/05/09 10:27:34;;;;;;;1.40;0.70;;;;;;;;;;5017088;28;20057;-57
2023/05/09 10:30:01;;;;;;;1.08;0.80;;;;;;;;;;5017150;28;20042;-57
2023/05/09 10:32:31;;;;;;;2.20;0.73;;;;;;;;;;5015374;28;20046;-57
2023/05/09 10:35:01;;;;;;;4.05;0.60;;;;;;;;;;5015173;28;20058;-58
2023/05/09 10:37:27;;;;;;;1.92;1.20;;;;;;;;;;5016865;28;20057;-58
2023/05/09 10:39:54;;;;;;;0.63;0.50;;;;;;;;;;5016672;28;20064;-58
2023/05/09 10:42:22;;;;;;;0.93;0.50;;;;;;;;;;5016410;28;20125;-57
2023/05/09 10:44:49;;;;;;;1.00;0.80;;;;;;;;;;5015017;28;20576;-58
2023/05/09 10:47:15;;;;;;;1.02;0.70;;;;;;;;;;5015556;28;20071;-58
2023/05/09 10:49:43;;;;;;;1.45;0.63;;;;;;;;;;5016042;28;20070;-58
2023/05/09 10:52:09;;;;;;;1.02;0.60;;;;;;;;;;5014766;28;20050;-58
2023/05/09 10:54:36;;;;;;;0.77;0.60;;;;;;;;;;5015657;28;20045;-58
2023/05/09 10:57:04;;;;;;;1.00;0.60;;;;;;;;;;5015745;28;20444;-58
2023/05/09 10:59:38;;;;;;;0.80;0.63;;;;;;;;;;5015210;28;20060;-58
2023/05/09 11:02:05;;;;;;;0.82;0.55;;;;;;;;;;5015222;28;20046;-57
2023/05/09 11:04:31;;;;;;;1.13;0.70;;;;;;;;;;5016274;28;20100;-58
2023/05/09 11:06:58;;;;;;;0.70;0.60;;;;;;;;;;5015054;28;20046;-57
2023/05/09 11:09:27;;;;;;;1.02;0.70;;;;;;;;;;5048291;28;20042;-57
2023/05/09 11:12:09;;;;;;;1.38;1.10;;;;;;;;;;5015221;28;20117;-57
2023/05/09 11:14:35;;;;;;;2.25;1.00;;;;;;;;;;5015883;28;20516;-58
2023/05/09 11:17:27;;;;;;;1.27;0.85;;;;;;;;;;5015960;28;20098;-58
2023/05/09 11:19:53;;;;;;;1.27;0.90;;;;;;;;;;5013605;28;20080;-58
2023/05/09 11:22:25;;;;;;;0.50;0.50;;;;;;;;;;5014384;28;20042;-58
2023/05/09 11:25:11;;;;;;;1.58;0.63;;;;;;;;;;5014480;28;20045;-58
2023/05/09 11:27:42;;;;;;;0.85;0.65;;;;;;;;;;5015066;28;20493;-58
2023/05/09 11:30:09;;;;;;;6.05;1.13;;;;;;;;;;5015178;28;20056;-58
2023/05/09 11:32:43;;;;;;;6.82;1.98;;;;;;;;;;5015635;28;20183;-58
2023/05/09 11:35:13;;;;;;;1.05;0.80;;;;;;;;;;5015053;28;20520;-58
2023/05/09 11:37:45;;;;;;;0.52;0.50;;;;;;;;;;5014375;28;20046;-58
2023/05/09 11:40:12;;;;;;;0.55;0.55;;;;;;;;;;5013097;28;20078;-58
2023/05/09 11:42:41;;;;;;;2.13;0.77;;;;;;;;;;5014217;28;20081;-58
2023/05/09 11:45:09;;;;;;;1.35;0.70;;;;;;;;;;5014474;28;20467;-58
2023/05/09 11:47:38;;;;;;;1.73;1.00;;;;;;;;;;5012094;28;20056;-58
2023/05/09 11:50:08;;;;;;;1.30;0.90;;;;;;;;;;5014529;28;20046;-58
2023/05/09 11:52:35;;;;;;;1.00;0.60;;;;;;;;;;5013407;28;20135;-58
2023/05/09 11:55:01;;;;;;;0.70;0.63;;;;;;;;;;5013734;28;20069;-58
2023/05/09 11:57:28;;;;;;;0.47;0.40;;;;;;;;;;5012509;28;20037;-58
2023/05/09 11:59:54;;;;;;;0.88;0.80;;;;;;;;;;5013883;28;20694;-58
2023/05/09 12:02:21;;;;;;;0.88;0.50;;;;;;;;;;5011962;28;20499;-58
2023/05/09 12:04:48;;;;;;;2.42;0.63;;;;;;;;;;5014310;28;20479;-58
2023/05/09 12:07:15;;;;;;;0.80;0.63;;;;;;;;;;5013084;28;20100;-58
2023/05/09 12:09:42;;;;;;;0.75;0.50;;;;;;;;;;5013993;28;21116;-58
2023/05/09 12:12:12;;;;;;;1.45;0.93;;;;;;;;;;5009630;28;20053;-58
2023/05/09 12:14:38;;;;;;;1.80;0.70;;;;;;;;;;5044833;28;20413;-57
2023/05/09 12:17:06;;;;;;;1.33;0.57;;;;;;;;;;5012324;28;20794;-57
2023/05/09 12:19:32;;;;;;;2.30;0.65;;;;;;;;;;5012599;28;20129;-58
2023/05/09 12:21:59;;;;;;;0.55;0.55;;;;;;;;;;5013668;28;20080;-59
2023/05/09 12:24:25;;;;;;;1.23;0.60;;;;;;;;;;5012078;28;20104;-59
2023/05/09 12:26:52;;;;;;;0.45;0.43;;;;;;;;;;5013336;28;20526;-60
2023/05/09 12:29:19;;;;;;;1.20;0.57;;;;;;;;;;5012081;28;20077;-59
2023/05/09 12:31:45;;;;;;;0.82;0.65;;;;;;;;;;5012840;28;20046;-60
2023/05/09 12:34:12;;;;;;;1.63;0.70;;;;;;;;;;5012443;28;20185;-61
2023/05/09 12:36:38;;;;;;;2.65;0.98;;;;;;;;;;5013129;28;20582;-60
2023/05/09 12:39:12;;;;;;;1.75;0.70;;;;;;;;;;5011904;28;20030;-60
2023/05/09 12:41:45;;;;;;;1.40;0.68;;;;;;;;;;5020389;28;20746;-60
2023/05/09 12:44:21;;;;;;;0.80;0.70;;;;;;;;;;4965329;28;1306405;-60
2023/05/09 12:47:01;;;;;;;0.43;0.40;;;;;;;;;;5020853;28;20046;-60
2023/05/09 12:49:27;;;;;;;2.20;0.77;;;;;;;;;;5012713;28;20126;-60
2023/05/09 12:51:54;;;;;;;2.65;1.10;;;;;;;;;;5014521;28;20570;-60
2023/05/09 12:54:24;;;;;;;0.68;0.68;;;;;;;;;;5012839;28;20496;-60
2023/05/09 12:56:51;;;;;;;0.55;0.52;;;;;;;;;;5011911;28;20038;-60
2023/05/09 12:59:21;;;;;;;1.27;0.70;;;;;;;;;;5012462;28;20455;-60
2023/05/09 13:01:52;;;;;;;1.13;0.70;;;;;;;;;;5012529;28;20046;-59
2023/05/09 13:04:19;;;;;;;3.03;0.70;;;;;;;;;;5013945;28;20128;-60
2023/05/09 13:06:49;;;;;;;1.55;0.75;;;;;;;;;;5012730;28;20054;-60
2023/05/09 13:09:15;;;;;;;0.73;0.45;;;;;;;;;;5013709;28;20604;-60
2023/05/09 13:11:41;;;;;;;1.38;0.80;;;;;;;;;;5013898;28;20046;-60
2023/05/09 13:14:08;;;;;;;1.02;0.55;;;;;;;;;;5013682;28;20076;-60
2023/05/09 13:16:34;;;;;;;1.80;0.60;;;;;;;;;;5013425;28;20060;-60
2023/05/09 13:19:00;;;;;;;1.52;0.80;;;;;;;;;;5029488;28;20030;-60
2023/05/09 13:21:26;;;;;;;0.65;0.60;;;;;;;;;;5013377;28;20629;-60
2023/05/09 13:23:53;;;;;;;2.00;0.68;;;;;;;;;;5014433;28;20038;-59
2023/05/09 13:26:20;;;;;;;2.17;0.50;;;;;;;;;;5028510;28;20038;-59
2023/05/09 13:28:46;;;;;;;0.65;0.50;;;;;;;;;;5014053;28;20505;-60
2023/05/09 13:31:12;;;;;;;1.13;0.65;;;;;;;;;;5012568;28;20327;-60
2023/05/09 13:33:38;;;;;;;2.00;0.75;;;;;;;;;;5013305;28;20034;-60
2023/05/09 13:36:05;;;;;;;1.33;0.80;;;;;;;;;;5013491;28;20120;-60
2023/05/09 13:38:35;;;;;;;2.67;0.50;;;;;;;;;;5014350;28;20555;-60
2023/05/09 13:41:01;;;;;;;2.88;0.70;;;;;;;;;;5012248;28;20050;-59
2023/05/09 13:43:27;;;;;;;0.70;0.57;;;;;;;;;;5013162;28;20046;-59
2023/05/09 13:45:54;;;;;;;1.02;0.60;;;;;;;;;;5016093;28;20097;-59
2023/05/09 13:48:20;;;;;;;1.65;1.17;;;;;;;;;;5017074;28;20110;-59
2023/05/09 13:50:46;;;;;;;3.38;0.65;;;;;;;;;;5016690;28;20078;-60
2023/05/09 13:53:12;;;;;;;1.95;0.77;;;;;;;;;;5032196;28;20144;-59
2023/05/09 13:55:38;;;;;;;1.98;1.30;;;;;;;;;;5017107;28;20121;-59
2023/05/09 13:58:05;;;;;;;1.08;0.55;;;;;;;;;;5016897;28;20045;-58
2023/05/09 14:00:31;;;;;;;1.02;0.70;;;;;;;;;;5032320;28;20112;-59
2023/05/09 14:02:57;;;;;;;3.65;0.90;;;;;;;;;;5010085;28;20184;-59
2023/05/09 14:05:23;;;;;;;0.70;0.65;;;;;;;;;;5014855;28;20121;-59
2023/05/09 14:07:49;;;;;;;0.98;0.63;;;;;;;;;;5017393;28;20140;-58
2023/05/09 14:10:16;;;;;;;1.08;0.90;;;;;;;;;;5015816;28;20463;-59
2023/05/09 14:12:46;;;;;;;0.57;0.57;;;;;;;;;;5014612;28;20100;-59
2023/05/09 14:15:12;;;;;;;0.80;0.80;;;;;;;;;;5015977;28;20452;-59
2023/05/09 14:17:38;;;;;;;0.60;0.60;;;;;;;;;;5048090;28;20371;-59
2023/05/09 14:20:05;;;;;;;2.00;0.80;;;;;;;;;;5015124;28;20045;-58
2023/05/09 14:22:31;;;;;;;2.25;0.47;;;;;;;;;;5031636;28;20046;-58
2023/05/09 14:24:58;;;;;;;2.00;0.52;;;;;;;;;;5015515;28;20042;-58
2023/05/09 14:27:25;;;;;;;1.08;0.90;;;;;;;;;;5015317;28;20057;-59
2023/05/09 14:29:51;;;;;;;0.93;0.60;;;;;;;;;;5014156;28;20253;-59
2023/05/09 14:32:17;;;;;;;0.47;0.47;;;;;;;;;;5016643;28;20033;-58
2023/05/09 14:34:43;;;;;;;1.48;0.85;;;;;;;;;;5015530;28;20046;-59
2023/05/09 14:37:13;;;;;;;3.00;1.10;;;;;;;;;;5014217;28;21217;-59
2023/05/09 14:39:42;;;;;;;1.45;0.80;;;;;;;;;;5014755;28;20126;-58
2023/05/09 14:42:10;;;;;;;2.03;0.85;;;;;;;;;;5016184;28;20495;-58